Decoded Metar for LFMK (Carcassonne in FRANCE) (IATA:CCF) | Meteo·Mobile Aviation Weather
aviador You're here:

LFMK Decoded Metar

Carcassonne in FRANCE
Report Time2018-10-18 16:00:00
UTC Time2018-10-18 16:25:11
Flight Rules vfr VFR
WindVRB at 03 kt
Visibility9999 m
Phenomena:N/A
Clouds:Overcast 054 Hf
Expected CloudBase > 1,200 ft AGL from Temp-Dew spread
Ceiling5,400 ft
Temp18°C (ISA +4)
Dew Point15°C (83% RH)
QNH1014 hPa
Density Alt1,073 ft
Elevation427 ft
Report Wrong Elevation
Raw Report
METAR LFMK 181600Z AUTO VRB03KT 9999 OVC054 18/15 Q1014 NOSIG=

Extra information for LFMK:More info

Metar Taf Metar & Taf Last 4 Metars F.Rules Stats Wind Profile Meteogram Temp Stats Airport Information Weather charts Add Link Nearby VenuesMetar ALERT Operation Metar Decoded Social comments

AudeAéroServices
Aéroprakt A-22
Husky Dealer